sensor_id;sensor_type;location;lat;lon;timestamp;pressure;altitude;pressure_sealevel;temperature;humidity
58753;BME280;44525;46.052;13.610;2023-05-23T00:01:18;100479.28;;;15.96;nan
58753;BME280;44525;46.052;13.610;2023-05-23T00:03:45;100481.50;;;15.94;nan
58753;BME280;44525;46.052;13.610;2023-05-23T00:06:11;100472.50;;;16.02;nan
58753;BME280;44525;46.052;13.610;2023-05-23T00:08:36;100477.25;;;15.61;nan
58753;BME280;44525;46.052;13.610;2023-05-23T00:11:02;100479.09;;;15.26;nan
58753;BME280;44525;46.052;13.610;2023-05-23T00:13:27;100476.56;;;15.38;nan
58753;BME280;44525;46.052;13.610;2023-05-23T00:15:52;100478.69;;;15.68;nan
58753;BME280;44525;46.052;13.610;2023-05-23T00:18:18;100482.31;;;15.86;nan
58753;BME280;44525;46.052;13.610;2023-05-23T00:20:44;100475.81;;;15.64;nan
58753;BME280;44525;46.052;13.610;2023-05-23T00:23:10;100477.53;;;15.42;nan
58753;BME280;44525;46.052;13.610;2023-05-23T00:25:38;100477.16;;;15.35;nan
58753;BME280;44525;46.052;13.610;2023-05-23T00:28:05;100475.03;;;15.23;nan
58753;BME280;44525;46.052;13.610;2023-05-23T00:30:32;100480.25;;;15.42;nan
58753;BME280;44525;46.052;13.610;2023-05-23T00:32:57;100475.78;;;15.55;nan
58753;BME280;44525;46.052;13.610;2023-05-23T00:35:24;100474.34;;;15.58;nan
58753;BME280;44525;46.052;13.610;2023-05-23T00:37:50;100472.34;;;15.81;nan
58753;BME280;44525;46.052;13.610;2023-05-23T00:40:20;100469.06;;;15.70;nan
58753;BME280;44525;46.052;13.610;2023-05-23T00:42:46;100465.66;;;15.73;nan
58753;BME280;44525;46.052;13.610;2023-05-23T00:45:13;100464.97;;;15.41;nan
58753;BME280;44525;46.052;13.610;2023-05-23T00:47:40;100464.22;;;15.09;nan
58753;BME280;44525;46.052;13.610;2023-05-23T00:50:11;100467.38;;;15.34;nan
58753;BME280;44525;46.052;13.610;2023-05-23T00:52:37;100465.63;;;15.38;nan
58753;BME280;44525;46.052;13.610;2023-05-23T00:55:04;100461.38;;;15.32;nan
58753;BME280;44525;46.052;13.610;2023-05-23T00:57:30;100468.06;;;15.57;nan
58753;BME280;44525;46.052;13.610;2023-05-23T00:59:55;100464.63;;;15.34;nan
58753;BME280;44525;46.052;13.610;2023-05-23T01:02:21;100466.81;;;15.15;nan
58753;BME280;44525;46.052;13.610;2023-05-23T01:04:49;100474.88;;;15.20;nan
58753;BME280;44525;46.052;13.610;2023-05-23T01:07:21;100456.91;;;15.36;nan
58753;BME280;44525;46.052;13.610;2023-05-23T01:09:47;100461.56;;;15.36;nan
58753;BME280;44525;46.052;13.610;2023-05-23T01:12:19;100462.53;;;15.31;nan
58753;BME280;44525;46.052;13.610;2023-05-23T01:15:05;100460.94;;;15.39;nan
58753;BME280;44525;46.052;13.610;2023-05-23T01:20:08;100463.81;;;15.34;nan
58753;BME280;44525;46.052;13.610;2023-05-23T01:28:31;100456.56;;;14.89;nan
58753;BME280;44525;46.052;13.610;2023-05-23T01:31:01;100468.28;;;14.81;nan
58753;BME280;44525;46.052;13.610;2023-05-23T01:33:28;100464.09;;;15.15;nan
58753;BME280;44525;46.052;13.610;2023-05-23T01:35:57;100455.25;;;15.18;nan
58753;BME280;44525;46.052;13.610;2023-05-23T01:38:24;100450.44;;;15.32;nan
58753;BME280;44525;46.052;13.610;2023-05-23T01:40:50;100453.22;;;15.41;nan
58753;BME280;44525;46.052;13.610;2023-05-23T01:43:15;100457.03;;;15.22;nan
58753;BME280;44525;46.052;13.610;2023-05-23T01:45:42;100457.16;;;15.17;nan
58753;BME280;44525;46.052;13.610;2023-05-23T01:48:08;100455.06;;;15.14;nan
58753;BME280;44525;46.052;13.610;2023-05-23T01:50:34;100459.28;;;15.29;nan
58753;BME280;44525;46.052;13.610;2023-05-23T01:53:01;100452.00;;;15.16;nan
58753;BME280;44525;46.052;13.610;2023-05-23T01:55:27;100454.72;;;14.76;nan
58753;BME280;44525;46.052;13.610;2023-05-23T01:57:54;100451.81;;;15.03;nan
58753;BME280;44525;46.052;13.610;2023-05-23T02:00:21;100449.56;;;15.05;nan
58753;BME280;44525;46.052;13.610;2023-05-23T02:02:46;100452.97;;;15.11;nan
58753;BME280;44525;46.052;13.610;2023-05-23T02:05:12;100453.16;;;15.15;nan
58753;BME280;44525;46.052;13.610;2023-05-23T02:07:37;100457.03;;;14.91;nan
58753;BME280;44525;46.052;13.610;2023-05-23T02:10:06;100460.84;;;15.13;nan
58753;BME280;44525;46.052;13.610;2023-05-23T02:12:31;100463.59;;;15.13;nan
58753;BME280;44525;46.052;13.610;2023-05-23T02:14:57;100457.59;;;15.02;nan
58753;BME280;44525;46.052;13.610;2023-05-23T02:17:22;100460.63;;;14.69;nan
58753;BME280;44525;46.052;13.610;2023-05-23T02:19:48;100459.78;;;14.91;nan
58753;BME280;44525;46.052;13.610;2023-05-23T02:22:14;100448.72;;;14.96;nan
58753;BME280;44525;46.052;13.610;2023-05-23T02:24:39;100454.91;;;14.79;nan
58753;BME280;44525;46.052;13.610;2023-05-23T02:27:05;100451.16;;;14.66;nan
58753;BME280;44525;46.052;13.610;2023-05-23T02:29:31;100449.16;;;14.81;nan
58753;BME280;44525;46.052;13.610;2023-05-23T02:31:56;100452.47;;;14.78;nan
58753;BME280;44525;46.052;13.610;2023-05-23T02:34:21;100450.53;;;14.69;nan
58753;BME280;44525;46.052;13.610;2023-05-23T02:36:47;100440.72;;;14.46;nan
58753;BME280;44525;46.052;13.610;2023-05-23T02:39:12;100444.44;;;14.27;nan
58753;BME280;44525;46.052;13.610;2023-05-23T02:41:37;100438.44;;;14.62;nan
58753;BME280;44525;46.052;13.610;2023-05-23T02:44:03;100439.50;;;14.61;nan
58753;BME280;44525;46.052;13.610;2023-05-23T02:46:28;100435.97;;;14.60;nan
58753;BME280;44525;46.052;13.610;2023-05-23T02:48:54;100449.53;;;14.65;nan
58753;BME280;44525;46.052;13.610;2023-05-23T02:51:19;100447.97;;;14.73;nan
58753;BME280;44525;46.052;13.610;2023-05-23T02:53:45;100438.97;;;14.72;nan
58753;BME280;44525;46.052;13.610;2023-05-23T02:56:10;100444.75;;;14.71;nan
58753;BME280;44525;46.052;13.610;2023-05-23T02:58:37;100442.34;;;14.47;nan
58753;BME280;44525;46.052;13.610;2023-05-23T03:01:04;100445.41;;;14.54;nan
58753;BME280;44525;46.052;13.610;2023-05-23T03:03:29;100438.34;;;14.30;nan
58753;BME280;44525;46.052;13.610;2023-05-23T03:05:58;100434.50;;;14.31;nan
58753;BME280;44525;46.052;13.610;2023-05-23T03:08:23;100433.94;;;14.66;nan
58753;BME280;44525;46.052;13.610;2023-05-23T03:10:49;100439.59;;;14.69;nan
58753;BME280;44525;46.052;13.610;2023-05-23T03:13:14;100436.50;;;14.62;nan
58753;BME280;44525;46.052;13.610;2023-05-23T03:15:40;100431.13;;;14.57;nan
58753;BME280;44525;46.052;13.610;2023-05-23T03:18:05;100439.53;;;14.38;nan
58753;BME280;44525;46.052;13.610;2023-05-23T03:20:31;100440.66;;;14.37;nan
58753;BME280;44525;46.052;13.610;2023-05-23T03:22:56;100433.50;;;14.27;nan
58753;BME280;44525;46.052;13.610;2023-05-23T03:25:21;100433.56;;;14.36;nan
58753;BME280;44525;46.052;13.610;2023-05-23T03:27:47;100434.78;;;14.52;nan
58753;BME280;44525;46.052;13.610;2023-05-23T03:30:12;100436.78;;;14.61;nan
58753;BME280;44525;46.052;13.610;2023-05-23T03:32:38;100429.03;;;14.31;nan
58753;BME280;44525;46.052;13.610;2023-05-23T03:35:03;100428.66;;;14.47;nan
58753;BME280;44525;46.052;13.610;2023-05-23T03:37:29;100423.50;;;14.23;nan
58753;BME280;44525;46.052;13.610;2023-05-23T03:39:54;100427.50;;;14.16;nan
58753;BME280;44525;46.052;13.610;2023-05-23T03:42:19;100434.34;;;14.28;nan
58753;BME280;44525;46.052;13.610;2023-05-23T03:44:45;100431.66;;;13.91;nan
58753;BME280;44525;46.052;13.610;2023-05-23T03:47:10;100431.59;;;14.05;nan
58753;BME280;44525;46.052;13.610;2023-05-23T03:49:35;100432.50;;;14.23;nan
58753;BME280;44525;46.052;13.610;2023-05-23T03:52:01;100436.06;;;14.24;nan
58753;BME280;44525;46.052;13.610;2023-05-23T03:54:26;100432.00;;;14.44;nan
58753;BME280;44525;46.052;13.610;2023-05-23T03:56:51;100436.63;;;14.34;nan
58753;BME280;44525;46.052;13.610;2023-05-23T03:59:17;100429.78;;;14.00;nan
58753;BME280;44525;46.052;13.610;2023-05-23T04:01:42;100437.72;;;14.11;nan
58753;BME280;44525;46.052;13.610;2023-05-23T04:04:08;100435.25;;;14.23;nan
58753;BME280;44525;46.052;13.610;2023-05-23T04:06:33;100433.03;;;14.25;nan
58753;BME280;44525;46.052;13.610;2023-05-23T04:08:58;100432.41;;;14.28;nan
58753;BME280;44525;46.052;13.610;2023-05-23T04:11:24;100437.63;;;14.38;nan
58753;BME280;44525;46.052;13.610;2023-05-23T04:13:49;100440.81;;;14.41;nan
58753;BME280;44525;46.052;13.610;2023-05-23T04:16:16;100437.00;;;14.19;nan
58753;BME280;44525;46.052;13.610;2023-05-23T04:18:41;100434.81;;;14.30;nan
58753;BME280;44525;46.052;13.610;2023-05-23T04:21:07;100441.31;;;14.20;nan
58753;BME280;44525;46.052;13.610;2023-05-23T04:23:33;100445.06;;;14.47;nan
58753;BME280;44525;46.052;13.610;2023-05-23T04:25:58;100445.59;;;14.57;nan
58753;BME280;44525;46.052;13.610;2023-05-23T04:28:25;100445.91;;;14.56;nan
58753;BME280;44525;46.052;13.610;2023-05-23T04:30:51;100444.94;;;14.52;nan
58753;BME280;44525;46.052;13.610;2023-05-23T04:33:17;100443.97;;;14.56;nan
58753;BME280;44525;46.052;13.610;2023-05-23T04:35:43;100442.31;;;14.69;nan
58753;BME280;44525;46.052;13.610;2023-05-23T04:38:08;100437.56;;;14.84;nan
58753;BME280;44525;46.052;13.610;2023-05-23T04:40:34;100443.06;;;14.61;nan
58753;BME280;44525;46.052;13.610;2023-05-23T04:43:00;100437.75;;;14.87;nan
58753;BME280;44525;46.052;13.610;2023-05-23T04:45:25;100431.16;;;14.88;nan
58753;BME280;44525;46.052;13.610;2023-05-23T04:47:51;100427.59;;;14.88;nan
58753;BME280;44525;46.052;13.610;2023-05-23T04:50:19;100435.31;;;15.26;nan
58753;BME280;44525;46.052;13.610;2023-05-23T04:52:46;100426.81;;;15.45;nan
58753;BME280;44525;46.052;13.610;2023-05-23T04:55:11;100426.81;;;15.36;nan
58753;BME280;44525;46.052;13.610;2023-05-23T04:57:37;100422.81;;;15.51;nan
58753;BME280;44525;46.052;13.610;2023-05-23T05:00:03;100420.91;;;15.60;nan
58753;BME280;44525;46.052;13.610;2023-05-23T05:02:37;100428.66;;;15.85;nan
58753;BME280;44525;46.052;13.610;2023-05-23T05:05:03;100430.75;;;15.96;nan
58753;BME280;44525;46.052;13.610;2023-05-23T05:07:29;100430.56;;;16.28;nan
58753;BME280;44525;46.052;13.610;2023-05-23T05:09:54;100427.84;;;16.19;nan
58753;BME280;44525;46.052;13.610;2023-05-23T05:12:20;100430.38;;;16.51;nan
58753;BME280;44525;46.052;13.610;2023-05-23T05:14:45;100429.84;;;16.66;nan
58753;BME280;44525;46.052;13.610;2023-05-23T05:17:10;100432.53;;;16.92;nan
58753;BME280;44525;46.052;13.610;2023-05-23T05:19:36;100429.75;;;17.01;nan
58753;BME280;44525;46.052;13.610;2023-05-23T05:22:02;100426.56;;;16.81;nan
58753;BME280;44525;46.052;13.610;2023-05-23T05:24:27;100420.63;;;16.71;nan
58753;BME280;44525;46.052;13.610;2023-05-23T05:26:53;100412.63;;;17.04;nan
58753;BME280;44525;46.052;13.610;2023-05-23T05:29:19;100413.78;;;17.24;nan
58753;BME280;44525;46.052;13.610;2023-05-23T05:31:45;100409.50;;;17.44;nan
58753;BME280;44525;46.052;13.610;2023-05-23T05:34:11;100417.41;;;17.67;nan
58753;BME280;44525;46.052;13.610;2023-05-23T05:36:37;100408.03;;;17.68;nan
58753;BME280;44525;46.052;13.610;2023-05-23T05:39:03;100408.31;;;17.54;nan
58753;BME280;44525;46.052;13.610;2023-05-23T05:41:28;100400.72;;;17.72;nan
58753;BME280;44525;46.052;13.610;2023-05-23T05:43:53;100405.22;;;17.98;nan
58753;BME280;44525;46.052;13.610;2023-05-23T05:46:19;100407.28;;;18.22;nan
58753;BME280;44525;46.052;13.610;2023-05-23T05:48:45;100407.66;;;18.33;nan
58753;BME280;44525;46.052;13.610;2023-05-23T05:51:10;100404.19;;;18.23;nan
58753;BME280;44525;46.052;13.610;2023-05-23T05:53:36;100400.44;;;18.40;nan
58753;BME280;44525;46.052;13.610;2023-05-23T05:56:01;100395.97;;;18.48;nan
58753;BME280;44525;46.052;13.610;2023-05-23T05:58:27;100400.50;;;18.53;nan
58753;BME280;44525;46.052;13.610;2023-05-23T06:00:52;100397.50;;;18.70;nan
58753;BME280;44525;46.052;13.610;2023-05-23T06:03:17;100396.97;;;18.77;nan
58753;BME280;44525;46.052;13.610;2023-05-23T06:05:43;100396.88;;;19.23;nan
58753;BME280;44525;46.052;13.610;2023-05-23T06:08:08;100390.97;;;19.49;nan
58753;BME280;44525;46.052;13.610;2023-05-23T06:10:37;100387.88;;;19.38;nan
58753;BME280;44525;46.052;13.610;2023-05-23T06:13:03;100399.94;;;19.46;nan
58753;BME280;44525;46.052;13.610;2023-05-23T06:15:29;100391.91;;;19.53;nan
58753;BME280;44525;46.052;13.610;2023-05-23T06:17:54;100389.88;;;19.25;nan
58753;BME280;44525;46.052;13.610;2023-05-23T06:20:19;100395.25;;;19.75;nan
58753;BME280;44525;46.052;13.610;2023-05-23T06:22:45;100391.94;;;19.69;nan
58753;BME280;44525;46.052;13.610;2023-05-23T06:25:10;100396.00;;;20.00;nan
58753;BME280;44525;46.052;13.610;2023-05-23T06:27:36;100392.03;;;19.85;nan
58753;BME280;44525;46.052;13.610;2023-05-23T06:30:05;100393.28;;;20.16;nan
58753;BME280;44525;46.052;13.610;2023-05-23T06:32:31;100388.41;;;20.25;nan
58753;BME280;44525;46.052;13.610;2023-05-23T06:34:56;100381.69;;;20.55;nan
58753;BME280;44525;46.052;13.610;2023-05-23T06:37:22;100375.78;;;20.40;nan
58753;BME280;44525;46.052;13.610;2023-05-23T06:39:47;100375.47;;;20.58;nan
58753;BME280;44525;46.052;13.610;2023-05-23T06:42:14;100381.00;;;21.06;nan
58753;BME280;44525;46.052;13.610;2023-05-23T06:44:39;100380.50;;;22.14;nan
58753;BME280;44525;46.052;13.610;2023-05-23T06:47:04;100372.97;;;21.91;nan
58753;BME280;44525;46.052;13.610;2023-05-23T06:49:30;100369.66;;;22.24;nan
58753;BME280;44525;46.052;13.610;2023-05-23T06:51:55;100360.44;;;22.63;nan
58753;BME280;44525;46.052;13.610;2023-05-23T06:54:20;100365.84;;;22.79;nan
58753;BME280;44525;46.052;13.610;2023-05-23T06:56:46;100365.44;;;22.77;nan
58753;BME280;44525;46.052;13.610;2023-05-23T06:59:11;100362.00;;;23.37;nan
58753;BME280;44525;46.052;13.610;2023-05-23T07:01:36;100355.88;;;23.55;nan
58753;BME280;44525;46.052;13.610;2023-05-23T07:04:02;100360.59;;;23.85;nan
58753;BME280;44525;46.052;13.610;2023-05-23T07:06:27;100352.88;;;24.01;nan
58753;BME280;44525;46.052;13.610;2023-05-23T07:08:53;100357.56;;;23.63;nan
58753;BME280;44525;46.052;13.610;2023-05-23T07:11:21;100356.56;;;23.44;nan
58753;BME280;44525;46.052;13.610;2023-05-23T07:13:47;100355.44;;;23.49;nan
58753;BME280;44525;46.052;13.610;2023-05-23T07:16:12;100347.19;;;23.26;nan
58753;BME280;44525;46.052;13.610;2023-05-23T07:18:38;100354.00;;;23.32;nan
58753;BME280;44525;46.052;13.610;2023-05-23T07:21:03;100348.97;;;23.11;nan
58753;BME280;44525;46.052;13.610;2023-05-23T07:23:31;100342.03;;;23.24;nan
58753;BME280;44525;46.052;13.610;2023-05-23T07:25:57;100351.94;;;23.56;nan
58753;BME280;44525;46.052;13.610;2023-05-23T07:28:22;100348.97;;;23.72;nan
58753;BME280;44525;46.052;13.610;2023-05-23T07:30:50;100340.34;;;23.80;nan
58753;BME280;44525;46.052;13.610;2023-05-23T07:33:15;100339.22;;;23.55;nan
58753;BME280;44525;46.052;13.610;2023-05-23T07:35:41;100337.84;;;24.02;nan
58753;BME280;44525;46.052;13.610;2023-05-23T07:38:06;100341.81;;;24.46;nan
58753;BME280;44525;46.052;13.610;2023-05-23T07:40:31;100334.56;;;24.34;nan
58753;BME280;44525;46.052;13.610;2023-05-23T07:42:57;100340.09;;;24.75;nan
58753;BME280;44525;46.052;13.610;2023-05-23T07:45:24;100334.03;;;24.17;nan
58753;BME280;44525;46.052;13.610;2023-05-23T07:47:49;100330.78;;;24.12;nan
58753;BME280;44525;46.052;13.610;2023-05-23T07:50:15;100325.75;;;24.66;nan
58753;BME280;44525;46.052;13.610;2023-05-23T07:52:40;100315.22;;;24.93;nan
58753;BME280;44525;46.052;13.610;2023-05-23T07:55:06;100318.56;;;24.61;nan
58753;BME280;44525;46.052;13.610;2023-05-23T07:57:32;100316.59;;;24.62;nan
58753;BME280;44525;46.052;13.610;2023-05-23T07:59:57;100316.00;;;24.42;nan
58753;BME280;44525;46.052;13.610;2023-05-23T08:02:23;100310.41;;;24.38;nan
58753;BME280;44525;46.052;13.610;2023-05-23T08:04:48;100299.75;;;24.92;nan
58753;BME280;44525;46.052;13.610;2023-05-23T08:07:14;100312.13;;;25.09;nan
58753;BME280;44525;46.052;13.610;2023-05-23T08:09:40;100296.16;;;24.43;nan
58753;BME280;44525;46.052;13.610;2023-05-23T08:12:06;100300.19;;;25.01;nan
58753;BME280;44525;46.052;13.610;2023-05-23T08:14:32;100294.81;;;25.37;nan
58753;BME280;44525;46.052;13.610;2023-05-23T08:16:57;100297.66;;;25.52;nan
58753;BME280;44525;46.052;13.610;2023-05-23T08:19:22;100303.31;;;24.93;nan
58753;BME280;44525;46.052;13.610;2023-05-23T08:21:48;100294.88;;;25.55;nan
58753;BME280;44525;46.052;13.610;2023-05-23T08:24:13;100298.13;;;25.86;nan
58753;BME280;44525;46.052;13.610;2023-05-23T08:26:38;100284.25;;;25.90;nan
58753;BME280;44525;46.052;13.610;2023-05-23T08:29:04;100284.69;;;26.24;nan
58753;BME280;44525;46.052;13.610;2023-05-23T08:31:30;100283.84;;;25.95;nan
58753;BME280;44525;46.052;13.610;2023-05-23T08:33:57;100289.88;;;26.44;nan
58753;BME280;44525;46.052;13.610;2023-05-23T08:36:23;100285.09;;;26.48;nan
58753;BME280;44525;46.052;13.610;2023-05-23T08:38:49;100290.66;;;26.41;nan
58753;BME280;44525;46.052;13.610;2023-05-23T08:41:18;100290.25;;;26.75;nan
58753;BME280;44525;46.052;13.610;2023-05-23T08:43:44;100285.50;;;26.54;nan
58753;BME280;44525;46.052;13.610;2023-05-23T08:46:10;100287.91;;;26.70;nan
58753;BME280;44525;46.052;13.610;2023-05-23T08:48:37;100283.09;;;26.59;nan
58753;BME280;44525;46.052;13.610;2023-05-23T08:51:03;100280.72;;;26.72;nan
58753;BME280;44525;46.052;13.610;2023-05-23T08:53:30;100275.50;;;26.92;nan
58753;BME280;44525;46.052;13.610;2023-05-23T08:55:57;100283.00;;;27.10;nan
58753;BME280;44525;46.052;13.610;2023-05-23T08:58:28;100279.31;;;27.45;nan
58753;BME280;44525;46.052;13.610;2023-05-23T09:00:54;100274.50;;;27.50;nan
58753;BME280;44525;46.052;13.610;2023-05-23T09:03:20;100278.13;;;27.46;nan
58753;BME280;44525;46.052;13.610;2023-05-23T09:05:47;100273.25;;;27.58;nan
58753;BME280;44525;46.052;13.610;2023-05-23T09:08:14;100265.31;;;27.56;nan
58753;BME280;44525;46.052;13.610;2023-05-23T09:10:41;100266.81;;;27.72;nan
58753;BME280;44525;46.052;13.610;2023-05-23T09:13:06;100272.22;;;28.00;nan
58753;BME280;44525;46.052;13.610;2023-05-23T09:15:31;100262.44;;;28.27;nan
58753;BME280;44525;46.052;13.610;2023-05-23T09:18:00;100262.84;;;28.25;nan
58753;BME280;44525;46.052;13.610;2023-05-23T09:20:28;100262.25;;;28.48;nan
58753;BME280;44525;46.052;13.610;2023-05-23T09:22:54;100258.28;;;28.46;nan
58753;BME280;44525;46.052;13.610;2023-05-23T09:25:20;100252.22;;;28.55;nan
58753;BME280;44525;46.052;13.610;2023-05-23T09:27:45;100256.75;;;28.83;nan
58753;BME280;44525;46.052;13.610;2023-05-23T09:30:12;100252.44;;;29.09;nan
58753;BME280;44525;46.052;13.610;2023-05-23T09:32:38;100254.53;;;29.01;nan
58753;BME280;44525;46.052;13.610;2023-05-23T09:35:05;100246.59;;;29.00;nan
58753;BME280;44525;46.052;13.610;2023-05-23T09:37:35;100249.13;;;28.87;nan
58753;BME280;44525;46.052;13.610;2023-05-23T09:40:06;100243.63;;;29.11;nan
58753;BME280;44525;46.052;13.610;2023-05-23T09:42:35;100246.22;;;29.32;nan
58753;BME280;44525;46.052;13.610;2023-05-23T09:45:01;100241.72;;;28.69;nan
58753;BME280;44525;46.052;13.610;2023-05-23T09:47:27;100235.91;;;28.91;nan
58753;BME280;44525;46.052;13.610;2023-05-23T09:49:53;100239.06;;;29.28;nan
58753;BME280;44525;46.052;13.610;2023-05-23T09:52:18;100233.66;;;29.44;nan
58753;BME280;44525;46.052;13.610;2023-05-23T09:54:46;100242.88;;;29.41;nan
58753;BME280;44525;46.052;13.610;2023-05-23T09:57:14;100229.19;;;29.47;nan
58753;BME280;44525;46.052;13.610;2023-05-23T09:59:44;100227.25;;;29.44;nan
58753;BME280;44525;46.052;13.610;2023-05-23T10:02:15;100228.63;;;29.59;nan
58753;BME280;44525;46.052;13.610;2023-05-23T10:04:42;100230.38;;;29.77;nan
58753;BME280;44525;46.052;13.610;2023-05-23T10:07:19;100238.34;;;29.78;nan
58753;BME280;44525;46.052;13.610;2023-05-23T10:09:54;100226.25;;;29.57;nan
58753;BME280;44525;46.052;13.610;2023-05-23T10:15:08;100223.97;;;29.76;nan
58753;BME280;44525;46.052;13.610;2023-05-23T10:17:53;100223.38;;;29.65;nan
58753;BME280;44525;46.052;13.610;2023-05-23T10:20:24;100227.19;;;29.74;nan
58753;BME280;44525;46.052;13.610;2023-05-23T10:22:53;100228.09;;;29.95;nan
58753;BME280;44525;46.052;13.610;2023-05-23T10:25:18;100220.97;;;29.90;nan
58753;BME280;44525;46.052;13.610;2023-05-23T10:27:47;100213.03;;;30.13;nan
58753;BME280;44525;46.052;13.610;2023-05-23T10:30:14;100214.50;;;30.21;nan
58753;BME280;44525;46.052;13.610;2023-05-23T10:32:40;100210.44;;;30.22;nan
58753;BME280;44525;46.052;13.610;2023-05-23T10:35:45;100208.50;;;30.42;nan
58753;BME280;44525;46.052;13.610;2023-05-23T10:38:30;100203.16;;;30.28;nan
58753;BME280;44525;46.052;13.610;2023-05-23T10:41:11;100208.97;;;30.61;nan
58753;BME280;44525;46.052;13.610;2023-05-23T10:46:11;100206.72;;;30.72;nan
58753;BME280;44525;46.052;13.610;2023-05-23T10:48:41;100205.31;;;30.40;nan
58753;BME280;44525;46.052;13.610;2023-05-23T10:51:11;100202.28;;;30.55;nan
58753;BME280;44525;46.052;13.610;2023-05-23T10:53:45;100211.06;;;30.77;nan
58753;BME280;44525;46.052;13.610;2023-05-23T10:56:19;100204.50;;;30.84;nan
58753;BME280;44525;46.052;13.610;2023-05-23T10:58:55;100207.84;;;30.78;nan
58753;BME280;44525;46.052;13.610;2023-05-23T11:01:21;100199.00;;;31.00;nan
58753;BME280;44525;46.052;13.610;2023-05-23T11:09:13;100212.41;;;31.29;nan
58753;BME280;44525;46.052;13.610;2023-05-23T11:14:16;100203.53;;;30.06;nan
58753;BME280;44525;46.052;13.610;2023-05-23T11:16:43;100203.44;;;29.86;nan
58753;BME280;44525;46.052;13.610;2023-05-23T11:21:43;100206.53;;;30.39;nan
58753;BME280;44525;46.052;13.610;2023-05-23T11:24:09;100201.25;;;30.45;nan
58753;BME280;44525;46.052;13.610;2023-05-23T11:26:38;100192.97;;;30.38;nan
58753;BME280;44525;46.052;13.610;2023-05-23T11:29:07;100200.63;;;30.57;nan
58753;BME280;44525;46.052;13.610;2023-05-23T11:31:37;100196.97;;;30.37;nan
58753;BME280;44525;46.052;13.610;2023-05-23T11:34:02;100203.50;;;30.54;nan
58753;BME280;44525;46.052;13.610;2023-05-23T11:36:27;100191.50;;;30.53;nan
58753;BME280;44525;46.052;13.610;2023-05-23T11:38:54;100195.41;;;30.59;nan
58753;BME280;44525;46.052;13.610;2023-05-23T11:41:19;100198.69;;;30.54;nan
58753;BME280;44525;46.052;13.610;2023-05-23T11:43:52;65501.63;;;-149.14;100.00
58753;BME280;44525;46.052;13.610;2023-05-23T11:46:17;65501.63;;;-149.14;100.00
58753;BME280;44525;46.052;13.610;2023-05-23T11:48:46;65501.63;;;-149.14;100.00
58753;BME280;44525;46.052;13.610;2023-05-23T11:51:12;65501.63;;;-149.14;100.00
58753;BME280;44525;46.052;13.610;2023-05-23T11:53:38;65501.63;;;-149.14;100.00
58753;BME280;44525;46.052;13.610;2023-05-23T11:56:05;65501.63;;;-149.14;100.00
58753;BME280;44525;46.052;13.610;2023-05-23T11:58:35;65501.63;;;-149.14;100.00
58753;BME280;44525;46.052;13.610;2023-05-23T12:01:08;65501.63;;;-149.14;100.00
58753;BME280;44525;46.052;13.610;2023-05-23T12:03:43;65501.63;;;-149.14;100.00
58753;BME280;44525;46.052;13.610;2023-05-23T12:06:10;65501.63;;;-149.14;100.00
58753;BME280;44525;46.052;13.610;2023-05-23T12:08:35;65501.63;;;-149.14;100.00
58753;BME280;44525;46.052;13.610;2023-05-23T12:11:01;65501.63;;;-149.14;100.00
58753;BME280;44525;46.052;13.610;2023-05-23T12:13:28;65501.63;;;-149.14;100.00
58753;BME280;44525;46.052;13.610;2023-05-23T12:15:58;65501.63;;;-149.14;100.00
58753;BME280;44525;46.052;13.610;2023-05-23T12:18:27;65501.63;;;-149.14;100.00
58753;BME280;44525;46.052;13.610;2023-05-23T12:20:52;65501.63;;;-149.14;100.00
58753;BME280;44525;46.052;13.610;2023-05-23T12:23:21;65501.63;;;-149.14;100.00
58753;BME280;44525;46.052;13.610;2023-05-23T12:25:54;65501.63;;;-149.14;100.00
58753;BME280;44525;46.052;13.610;2023-05-23T12:28:22;65501.63;;;-149.14;100.00
58753;BME280;44525;46.052;13.610;2023-05-23T12:30:58;65501.63;;;-149.14;100.00
58753;BME280;44525;46.052;13.610;2023-05-23T12:33:24;65501.63;;;-149.14;100.00
58753;BME280;44525;46.052;13.610;2023-05-23T12:35:50;65501.63;;;-149.14;100.00
58753;BME280;44525;46.052;13.610;2023-05-23T12:38:15;65501.63;;;-149.14;100.00
58753;BME280;44525;46.052;13.610;2023-05-23T12:40:41;65501.63;;;-149.14;100.00
58753;BME280;44525;46.052;13.610;2023-05-23T12:43:08;65501.63;;;-149.14;100.00
58753;BME280;44525;46.052;13.610;2023-05-23T12:45:35;65501.63;;;-149.14;100.00
58753;BME280;44525;46.052;13.610;2023-05-23T12:48:01;65501.63;;;-149.14;100.00
58753;BME280;44525;46.052;13.610;2023-05-23T12:50:27;65501.63;;;-149.14;100.00
58753;BME280;44525;46.052;13.610;2023-05-23T12:52:53;65501.63;;;-149.14;100.00
58753;BME280;44525;46.052;13.610;2023-05-23T12:55:18;65501.63;;;-149.14;100.00
58753;BME280;44525;46.052;13.610;2023-05-23T12:57:44;65501.63;;;-149.14;100.00
58753;BME280;44525;46.052;13.610;2023-05-23T13:00:10;65501.63;;;-149.14;100.00
58753;BME280;44525;46.052;13.610;2023-05-23T13:02:35;65501.63;;;-149.14;100.00
58753;BME280;44525;46.052;13.610;2023-05-23T13:05:01;65501.63;;;-149.14;100.00
58753;BME280;44525;46.052;13.610;2023-05-23T13:07:26;65501.63;;;-149.14;100.00
58753;BME280;44525;46.052;13.610;2023-05-23T13:09:52;65501.63;;;-149.14;100.00
58753;BME280;44525;46.052;13.610;2023-05-23T13:12:17;65501.63;;;-149.14;100.00
58753;BME280;44525;46.052;13.610;2023-05-23T13:14:43;65501.63;;;-149.14;100.00
58753;BME280;44525;46.052;13.610;2023-05-23T13:17:08;65501.63;;;-149.14;100.00